createdAt,value
2022-08-27T00:01:18.510Z,4.60
2022-08-27T00:03:45.269Z,4.67
2022-08-27T00:06:16.426Z,4.45
2022-08-27T00:08:44.557Z,3.93
2022-08-27T00:11:12.830Z,4.27
2022-08-27T00:13:40.558Z,4.90
2022-08-27T00:16:10.100Z,5.13
2022-08-27T00:18:37.653Z,4.53
2022-08-27T00:21:04.905Z,4.60
2022-08-27T00:23:34.414Z,5.37
2022-08-27T00:26:01.413Z,5.30
2022-08-27T00:28:29.225Z,6.00
2022-08-27T00:30:56.498Z,5.20
2022-08-27T00:33:24.277Z,5.13
2022-08-27T00:35:51.170Z,5.10
2022-08-27T00:38:18.286Z,4.77
2022-08-27T00:40:45.202Z,5.03
2022-08-27T00:43:11.687Z,4.50
2022-08-27T00:45:43.022Z,4.70
2022-08-27T00:48:12.438Z,4.23
2022-08-27T00:50:43.218Z,4.67
2022-08-27T00:53:14.482Z,4.90
2022-08-27T00:55:55.622Z,3.90
2022-08-27T00:58:38.533Z,5.17
2022-08-27T01:01:13.933Z,4.57
2022-08-27T01:03:46.162Z,5.00
2022-08-27T01:06:16.000Z,4.07
2022-08-27T01:08:50.624Z,4.80
2022-08-27T01:11:17.418Z,5.40
2022-08-27T01:14:00.074Z,5.23
2022-08-27T01:16:35.872Z,5.70
2022-08-27T01:19:06.038Z,6.50
2022-08-27T01:21:35.308Z,5.90
2022-08-27T01:24:05.637Z,6.43
2022-08-27T01:26:32.761Z,5.23
2022-08-27T01:28:59.459Z,5.17
2022-08-27T01:31:25.913Z,4.67
2022-08-27T01:33:56.117Z,4.13
2022-08-27T01:36:22.541Z,4.50
2022-08-27T01:38:49.002Z,4.80
2022-08-27T01:41:15.721Z,5.07
2022-08-27T01:43:42.121Z,5.17
2022-08-27T01:46:08.532Z,6.10
2022-08-27T01:48:35.165Z,5.03
2022-08-27T01:51:01.695Z,5.10
2022-08-27T01:53:28.339Z,5.80
2022-08-27T01:55:56.324Z,5.70
2022-08-27T01:58:28.953Z,5.63
2022-08-27T02:01:00.620Z,4.30
2022-08-27T02:03:27.506Z,5.03
2022-08-27T02:05:54.571Z,5.53
2022-08-27T02:08:21.693Z,4.73
2022-08-27T02:10:49.677Z,5.80
2022-08-27T02:13:17.263Z,5.93
2022-08-27T02:15:45.005Z,5.00
2022-08-27T02:18:12.059Z,5.77
2022-08-27T02:20:38.951Z,6.53
2022-08-27T02:23:06.733Z,6.47
2022-08-27T02:25:33.968Z,6.57
2022-08-27T02:28:01.245Z,6.90
2022-08-27T02:30:29.878Z,6.47
2022-08-27T02:32:56.289Z,7.20
2022-08-27T02:35:25.321Z,8.67
2022-08-27T02:37:52.314Z,8.97
2022-08-27T02:40:21.601Z,9.17
2022-08-27T02:42:48.185Z,8.00
2022-08-27T02:45:15.923Z,9.00
2022-08-27T02:47:42.645Z,11.30
2022-08-27T02:50:10.432Z,11.10
2022-08-27T02:52:37.045Z,13.63
2022-08-27T02:55:05.457Z,11.57
2022-08-27T02:57:34.294Z,14.27
2022-08-27T03:00:07.045Z,13.97
2022-08-27T03:02:33.693Z,14.37
2022-08-27T03:05:00.194Z,15.10
2022-08-27T03:07:26.791Z,15.30
2022-08-27T03:09:53.242Z,16.37
2022-08-27T03:12:19.730Z,14.87
2022-08-27T03:14:49.316Z,15.03
2022-08-27T03:17:34.434Z,15.00
2022-08-27T03:20:01.994Z,14.10
2022-08-27T03:22:28.509Z,14.97
2022-08-27T03:24:56.459Z,15.40
2022-08-27T03:27:22.992Z,14.37
2022-08-27T03:29:49.461Z,15.30
2022-08-27T03:32:15.874Z,15.13
2022-08-27T03:34:42.471Z,12.80
2022-08-27T03:37:08.985Z,12.43
2022-08-27T03:39:35.700Z,10.83
2022-08-27T03:42:02.486Z,10.87
2022-08-27T03:44:29.053Z,11.13
2022-08-27T03:46:55.533Z,10.10
2022-08-27T03:49:22.618Z,9.07
2022-08-27T03:51:51.823Z,8.67
2022-08-27T03:54:18.539Z,10.03
2022-08-27T03:56:45.500Z,9.87
2022-08-27T03:59:12.186Z,10.17
2022-08-27T04:01:38.738Z,9.10
2022-08-27T04:04:05.146Z,9.43
2022-08-27T04:06:33.201Z,10.90
2022-08-27T04:09:00.331Z,10.50
2022-08-27T04:11:29.355Z,9.17
2022-08-27T04:13:56.451Z,9.90
2022-08-27T04:16:23.110Z,9.50
2022-08-27T04:18:49.766Z,9.60
2022-08-27T04:21:16.267Z,10.57
2022-08-27T04:23:43.197Z,9.40
2022-08-27T04:26:11.239Z,9.70
2022-08-27T04:28:39.247Z,8.90
2022-08-27T04:31:07.388Z,9.80
2022-08-27T04:33:43.737Z,8.77
2022-08-27T04:36:17.600Z,9.70
2022-08-27T04:38:44.207Z,9.23
2022-08-27T04:41:21.203Z,10.03
2022-08-27T04:43:50.609Z,10.67
2022-08-27T04:46:25.761Z,10.17
2022-08-27T04:48:53.457Z,11.97
2022-08-27T04:51:21.105Z,12.50
2022-08-27T04:53:49.757Z,12.83
2022-08-27T04:56:19.321Z,11.70
2022-08-27T04:58:45.900Z,12.47
2022-08-27T05:01:21.476Z,13.43
2022-08-27T05:03:48.658Z,12.57
2022-08-27T05:06:15.407Z,12.83
2022-08-27T05:08:42.276Z,13.03
2022-08-27T05:11:11.801Z,12.73
2022-08-27T05:13:38.618Z,11.73
2022-08-27T05:16:08.349Z,13.17
2022-08-27T05:18:42.105Z,12.40
2022-08-27T05:21:23.759Z,11.87
2022-08-27T05:23:51.571Z,12.77
2022-08-27T05:26:18.590Z,12.80
2022-08-27T05:28:45.131Z,12.17
2022-08-27T05:31:13.373Z,11.57
2022-08-27T05:33:41.024Z,11.20
2022-08-27T05:36:14.439Z,10.53
2022-08-27T05:38:41.858Z,9.67
2022-08-27T05:41:15.201Z,9.67
2022-08-27T05:43:47.747Z,9.63
2022-08-27T05:46:18.575Z,9.67
2022-08-27T05:48:45.030Z,8.80
2022-08-27T05:51:13.328Z,8.97
2022-08-27T05:53:43.765Z,9.10
2022-08-27T05:56:15.764Z,8.03
2022-08-27T05:59:01.271Z,7.57
2022-08-27T06:01:30.530Z,7.37
2022-08-27T06:03:57.323Z,8.20
2022-08-27T06:06:23.889Z,7.43
2022-08-27T06:08:52.954Z,7.67
2022-08-27T06:11:19.531Z,8.23
2022-08-27T06:13:46.489Z,7.30
2022-08-27T06:16:16.305Z,8.60
2022-08-27T06:18:46.007Z,8.10
2022-08-27T06:21:14.875Z,8.07
2022-08-27T06:23:41.413Z,7.67
2022-08-27T06:26:10.431Z,7.17
2022-08-27T06:28:37.257Z,7.73
2022-08-27T06:31:04.864Z,6.90
2022-08-27T06:33:31.241Z,6.10
2022-08-27T06:36:03.165Z,5.80
2022-08-27T06:38:29.884Z,6.20
2022-08-27T06:40:57.173Z,6.00
2022-08-27T06:43:25.179Z,5.77
2022-08-27T06:45:52.688Z,5.80
2022-08-27T06:48:19.865Z,5.87
2022-08-27T06:50:46.508Z,6.27
2022-08-27T06:53:13.470Z,5.40
2022-08-27T06:55:49.091Z,5.40
2022-08-27T06:58:17.108Z,5.43
2022-08-27T07:00:48.793Z,5.57
2022-08-27T07:03:15.570Z,5.17
2022-08-27T07:05:42.014Z,5.93
2022-08-27T07:08:09.977Z,5.67
2022-08-27T07:10:37.348Z,5.83
2022-08-27T07:13:04.821Z,5.57
2022-08-27T07:15:31.901Z,5.20
2022-08-27T07:18:00.728Z,6.10
2022-08-27T07:20:27.365Z,5.50
2022-08-27T07:22:54.480Z,4.80
2022-08-27T07:25:21.431Z,6.00
2022-08-27T07:27:49.484Z,5.33
2022-08-27T07:30:17.679Z,5.93
2022-08-27T07:32:45.537Z,5.70
2022-08-27T07:35:13.539Z,5.60
2022-08-27T07:37:41.657Z,5.93
2022-08-27T07:40:12.540Z,5.63
2022-08-27T07:43:00.005Z,5.97
2022-08-27T07:45:27.899Z,6.57
2022-08-27T07:47:54.428Z,6.80
2022-08-27T07:50:23.524Z,6.30
2022-08-27T07:52:51.545Z,6.30
2022-08-27T07:55:19.049Z,6.20
2022-08-27T07:57:47.845Z,6.67
2022-08-27T08:00:14.758Z,6.40
2022-08-27T08:02:42.299Z,6.53
2022-08-27T08:05:09.942Z,6.00
2022-08-27T08:07:38.392Z,6.33
2022-08-27T08:10:07.469Z,6.63
2022-08-27T08:12:36.710Z,6.63
2022-08-27T08:15:06.344Z,6.17
2022-08-27T08:17:36.205Z,6.40
2022-08-27T08:20:21.853Z,5.97
2022-08-27T08:22:52.606Z,5.43
2022-08-27T08:25:19.694Z,5.60
2022-08-27T08:27:47.122Z,5.43
2022-08-27T08:30:14.066Z,6.10
2022-08-27T08:32:43.309Z,5.67
2022-08-27T08:35:10.663Z,7.53
2022-08-27T08:37:37.907Z,5.93
2022-08-27T08:40:06.394Z,5.93
2022-08-27T08:42:41.839Z,5.53
2022-08-27T08:45:14.599Z,5.60
2022-08-27T08:47:53.499Z,5.83
2022-08-27T08:50:27.538Z,5.77
2022-08-27T08:53:33.461Z,5.27
2022-08-27T08:56:04.270Z,5.43
2022-08-27T08:58:45.915Z,5.30
2022-08-27T09:01:15.801Z,5.00
2022-08-27T09:03:52.101Z,4.70
2022-08-27T09:06:26.989Z,5.53
2022-08-27T09:08:53.716Z,5.50
2022-08-27T09:11:32.311Z,5.30
2022-08-27T09:14:05.098Z,5.13
2022-08-27T09:16:32.654Z,5.67
2022-08-27T09:19:02.000Z,5.47
2022-08-27T09:21:49.510Z,5.70
2022-08-27T09:24:25.181Z,5.57
2022-08-27T09:26:52.328Z,4.90
2022-08-27T09:29:20.880Z,5.47
2022-08-27T09:31:55.874Z,5.53
2022-08-27T09:34:23.936Z,5.47
2022-08-27T09:37:08.079Z,5.17
2022-08-27T09:39:48.102Z,4.20
2022-08-27T09:42:36.277Z,5.57
2022-08-27T09:45:12.107Z,5.27
2022-08-27T09:48:07.789Z,5.00
2022-08-27T09:51:00.238Z,4.50
2022-08-27T09:53:47.564Z,5.00
2022-08-27T09:56:36.744Z,5.20
2022-08-27T09:59:07.692Z,5.30
2022-08-27T10:01:38.669Z,5.17
2022-08-27T10:04:14.844Z,5.33
2022-08-27T10:06:47.349Z,4.73
2022-08-27T10:09:19.922Z,4.17
2022-08-27T10:12:20.640Z,4.40
2022-08-27T10:14:53.067Z,4.90
2022-08-27T10:17:38.527Z,4.60
2022-08-27T10:20:25.870Z,4.20
2022-08-27T10:23:26.242Z,4.30
2022-08-27T10:26:08.036Z,4.33
2022-08-27T10:28:58.457Z,4.03
2022-08-27T10:31:48.160Z,3.80
2022-08-27T10:34:38.498Z,4.27
2022-08-27T10:37:36.844Z,4.17
2022-08-27T10:40:18.142Z,3.97
2022-08-27T10:42:57.839Z,4.43
2022-08-27T10:45:42.588Z,4.60
2022-08-27T10:48:29.630Z,4.70
2022-08-27T10:51:12.388Z,5.27
2022-08-27T10:53:53.005Z,4.70
2022-08-27T10:56:35.060Z,4.40
2022-08-27T10:59:04.575Z,4.37
2022-08-27T11:01:36.946Z,4.70
2022-08-27T11:04:13.153Z,4.93
2022-08-27T11:06:44.708Z,5.03
2022-08-27T11:09:17.286Z,5.43
2022-08-27T11:12:13.248Z,4.77
2022-08-27T11:15:00.457Z,4.67
2022-08-27T11:17:32.301Z,4.70
2022-08-27T11:20:18.927Z,4.60
2022-08-27T11:22:51.163Z,4.67
2022-08-27T11:25:36.447Z,4.63
2022-08-27T11:28:05.346Z,4.40
2022-08-27T11:30:46.511Z,4.47
2022-08-27T11:33:22.633Z,4.47
2022-08-27T11:36:22.723Z,4.43
2022-08-27T11:39:02.869Z,3.97
2022-08-27T11:41:47.493Z,4.47
2022-08-27T11:44:15.868Z,4.20
2022-08-27T11:46:48.993Z,3.80
2022-08-27T11:49:30.680Z,3.83
2022-08-27T11:52:01.136Z,4.20
2022-08-27T11:54:32.256Z,3.97
2022-08-27T11:56:59.018Z,3.93
2022-08-27T11:59:32.989Z,3.67
2022-08-27T12:02:32.364Z,2.97
2022-08-27T12:05:39.793Z,3.37
2022-08-27T12:08:16.376Z,3.20
2022-08-27T12:11:03.936Z,3.10
2022-08-27T12:14:08.442Z,3.30
2022-08-27T12:16:53.457Z,3.37
2022-08-27T12:19:25.941Z,3.10
2022-08-27T12:22:00.699Z,3.10
2022-08-27T12:24:55.737Z,3.40
2022-08-27T12:27:22.659Z,3.40
2022-08-27T12:29:59.796Z,3.40
2022-08-27T12:32:41.940Z,4.17
2022-08-27T12:35:16.930Z,4.07
2022-08-27T12:37:56.961Z,3.60
2022-08-27T12:40:27.280Z,4.80
2022-08-27T12:43:10.471Z,5.10
2022-08-27T12:45:50.237Z,4.83
2022-08-27T12:48:25.581Z,5.23
2022-08-27T12:50:55.358Z,5.50
2022-08-27T12:53:24.817Z,4.50
2022-08-27T12:56:19.232Z,5.47
2022-08-27T12:59:05.964Z,4.73
2022-08-27T13:01:51.690Z,5.30
2022-08-27T13:04:31.329Z,6.30
2022-08-27T13:07:01.313Z,6.37
2022-08-27T13:09:33.451Z,5.50
2022-08-27T13:12:01.902Z,5.70
2022-08-27T13:14:36.605Z,4.80
2022-08-27T13:17:08.121Z,4.53
2022-08-27T13:19:42.939Z,4.18
2022-08-27T13:22:09.721Z,4.10
2022-08-27T13:24:45.922Z,4.07
2022-08-27T13:27:12.959Z,3.87
2022-08-27T13:29:41.397Z,3.77
2022-08-27T13:32:09.029Z,3.97
2022-08-27T13:34:41.073Z,3.53
2022-08-27T13:37:36.045Z,3.03
2022-08-27T13:40:03.882Z,4.17
2022-08-27T13:42:31.504Z,3.03
2022-08-27T13:45:03.397Z,3.30
2022-08-27T13:47:30.772Z,3.05
2022-08-27T13:50:07.586Z,3.67
2022-08-27T13:52:56.971Z,3.40
2022-08-27T13:55:23.546Z,3.70
2022-08-27T13:57:51.886Z,3.38
2022-08-27T14:00:32.705Z,3.43
2022-08-27T14:03:03.660Z,4.33
2022-08-27T14:05:34.229Z,5.60
2022-08-27T14:08:12.733Z,3.97
2022-08-27T14:10:43.967Z,3.70
2022-08-27T14:13:19.939Z,3.17
2022-08-27T14:15:58.310Z,3.40
2022-08-27T14:18:55.116Z,3.28
2022-08-27T14:21:16.776Z,3.53
2022-08-27T14:23:43.437Z,3.72
2022-08-27T14:26:10.612Z,3.60
2022-08-27T14:28:37.007Z,3.35
2022-08-27T14:31:03.725Z,3.58
2022-08-27T14:33:30.528Z,3.22
2022-08-27T14:35:57.583Z,3.85
2022-08-27T14:38:30.034Z,4.00
2022-08-27T14:40:58.588Z,4.20
2022-08-27T14:43:25.378Z,3.60
2022-08-27T14:45:53.306Z,3.90
2022-08-27T14:48:28.596Z,3.92
2022-08-27T14:50:56.586Z,4.30
2022-08-27T14:53:27.006Z,4.20
2022-08-27T14:55:54.866Z,6.83
2022-08-27T14:58:22.361Z,5.97
2022-08-27T15:00:49.163Z,5.43
2022-08-27T15:03:15.584Z,5.15
2022-08-27T15:05:43.048Z,4.07
2022-08-27T15:08:13.351Z,3.70
2022-08-27T15:10:40.762Z,4.33
2022-08-27T15:13:09.518Z,3.50
2022-08-27T15:15:36.065Z,3.20
2022-08-27T15:18:02.622Z,3.88
2022-08-27T15:20:29.111Z,3.80
2022-08-27T15:22:55.882Z,3.50
2022-08-27T15:25:22.558Z,3.27
2022-08-27T15:27:49.350Z,3.22
2022-08-27T15:30:17.513Z,3.67
2022-08-27T15:32:47.063Z,4.00
2022-08-27T15:35:17.424Z,3.40
2022-08-27T15:37:44.749Z,3.60
2022-08-27T15:40:14.719Z,3.33
2022-08-27T15:42:41.701Z,4.28
2022-08-27T15:45:09.900Z,4.13
2022-08-27T15:47:36.340Z,5.22
2022-08-27T15:50:03.376Z,4.93
2022-08-27T15:52:41.047Z,4.97
2022-08-27T15:55:18.189Z,5.38
2022-08-27T15:57:44.609Z,5.57
2022-08-27T16:00:11.543Z,6.40
2022-08-27T16:02:38.041Z,5.97
2022-08-27T16:05:05.069Z,6.03
2022-08-27T16:07:31.498Z,5.60
2022-08-27T16:09:58.067Z,5.37
2022-08-27T16:12:27.331Z,4.95
2022-08-27T16:14:55.317Z,5.55
2022-08-27T16:17:22.583Z,5.30
2022-08-27T16:19:49.380Z,5.70
2022-08-27T16:22:16.255Z,9.63
2022-08-27T16:24:43.306Z,6.20
2022-08-27T16:27:09.771Z,13.80
2022-08-27T16:29:36.319Z,6.90
2022-08-27T16:32:03.415Z,7.63
2022-08-27T16:34:31.110Z,4.87
2022-08-27T16:36:57.767Z,4.70
2022-08-27T16:39:24.357Z,4.32
2022-08-27T16:41:50.990Z,4.70
2022-08-27T16:44:18.114Z,4.77
2022-08-27T16:46:44.795Z,4.93
2022-08-27T16:49:29.908Z,4.77
2022-08-27T16:51:56.571Z,3.97
2022-08-27T16:54:23.319Z,4.20
2022-08-27T16:56:49.996Z,3.93
2022-08-27T16:59:16.652Z,4.40
2022-08-27T17:01:45.393Z,4.03
2022-08-27T17:04:21.377Z,4.27
2022-08-27T17:06:54.707Z,3.73
2022-08-27T17:09:21.435Z,3.50
2022-08-27T17:11:56.964Z,3.17
2022-08-27T17:14:24.145Z,3.50
2022-08-27T17:16:53.794Z,3.28
2022-08-27T17:19:23.090Z,3.65
2022-08-27T17:21:50.735Z,2.95
2022-08-27T17:24:17.773Z,3.78
2022-08-27T17:26:45.018Z,3.73
2022-08-27T17:29:11.544Z,3.40
2022-08-27T17:31:41.271Z,3.10
2022-08-27T17:34:14.155Z,3.57
2022-08-27T17:36:40.717Z,3.80
2022-08-27T17:39:10.898Z,4.00
2022-08-27T17:41:40.481Z,3.33
2022-08-27T17:44:12.815Z,3.53
2022-08-27T17:46:39.240Z,3.70
2022-08-27T17:49:05.801Z,4.78
2022-08-27T17:51:32.379Z,4.40
2022-08-27T17:54:01.165Z,3.92
2022-08-27T17:56:28.936Z,3.73
2022-08-27T17:58:56.028Z,3.47
2022-08-27T18:01:28.327Z,3.67
2022-08-27T18:03:56.405Z,3.50
2022-08-27T18:06:23.121Z,3.17
2022-08-27T18:08:49.468Z,3.35
2022-08-27T18:11:17.285Z,3.72
2022-08-27T18:13:45.413Z,4.40
2022-08-27T18:16:12.022Z,3.30
2022-08-27T18:18:38.908Z,3.47
2022-08-27T18:21:07.851Z,3.00
2022-08-27T18:23:36.863Z,3.33
2022-08-27T18:26:05.582Z,3.22
2022-08-27T18:28:34.067Z,3.15
2022-08-27T18:31:03.689Z,2.88
2022-08-27T18:33:33.378Z,2.78
2022-08-27T18:35:59.798Z,3.50
2022-08-27T18:38:26.880Z,2.97
2022-08-27T18:40:55.218Z,3.17
2022-08-27T18:43:26.699Z,3.37
2022-08-27T18:45:53.374Z,3.20
2022-08-27T18:48:22.458Z,4.00
2022-08-27T18:50:54.904Z,3.47
2022-08-27T18:53:21.525Z,3.17
2022-08-27T18:55:49.904Z,3.10
2022-08-27T18:58:16.579Z,2.77
2022-08-27T19:00:45.787Z,2.95
2022-08-27T19:03:17.650Z,2.60
2022-08-27T19:05:44.310Z,3.15
2022-08-27T19:08:13.351Z,3.17
2022-08-27T19:10:39.947Z,2.70
2022-08-27T19:13:06.347Z,3.35
2022-08-27T19:15:32.871Z,3.20
2022-08-27T19:18:03.419Z,3.08
2022-08-27T19:20:31.429Z,4.13
2022-08-27T19:22:59.374Z,3.50
2022-08-27T19:25:27.985Z,3.70
2022-08-27T19:27:55.133Z,3.00
2022-08-27T19:30:21.991Z,2.87
2022-08-27T19:32:48.565Z,2.80
2022-08-27T19:35:21.487Z,3.37
2022-08-27T19:37:53.247Z,3.63
2022-08-27T19:40:22.154Z,3.83
2022-08-27T19:42:49.136Z,4.57
2022-08-27T19:45:15.702Z,3.83
2022-08-27T19:47:50.381Z,3.80
2022-08-27T19:50:17.969Z,4.47
2022-08-27T19:52:44.678Z,4.33
2022-08-27T19:55:14.359Z,3.67
2022-08-27T19:57:42.859Z,3.77
2022-08-27T20:00:11.393Z,3.63
2022-08-27T20:02:38.014Z,3.33
2022-08-27T20:05:21.564Z,3.47
2022-08-27T20:07:52.710Z,2.87
2022-08-27T20:10:21.678Z,2.80
2022-08-27T20:12:48.604Z,3.27
2022-08-27T20:15:15.799Z,3.30
2022-08-27T20:17:43.035Z,3.50
2022-08-27T20:20:10.792Z,3.50
2022-08-27T20:22:37.542Z,3.23
2022-08-27T20:25:04.673Z,2.47
2022-08-27T20:27:31.173Z,3.10
2022-08-27T20:29:58.184Z,3.00
2022-08-27T20:32:29.692Z,3.00
2022-08-27T20:34:57.055Z,2.40
2022-08-27T20:37:24.361Z,3.00
2022-08-27T20:39:52.526Z,3.30
2022-08-27T20:42:19.982Z,3.10
2022-08-27T20:44:47.200Z,4.57
2022-08-27T20:47:14.074Z,4.10
2022-08-27T20:49:41.649Z,5.43
2022-08-27T20:52:11.514Z,5.80
2022-08-27T20:54:38.346Z,4.37
2022-08-27T20:57:04.936Z,3.70
2022-08-27T20:59:50.071Z,3.70
2022-08-27T21:02:21.556Z,3.13
2022-08-27T21:04:48.543Z,3.70
2022-08-27T21:07:17.125Z,3.20
2022-08-27T21:09:56.289Z,3.63
2022-08-27T21:12:28.354Z,3.60
2022-08-27T21:14:55.877Z,3.10
2022-08-27T21:17:24.478Z,5.43
2022-08-27T21:19:51.546Z,5.80
2022-08-27T21:22:18.580Z,5.07
2022-08-27T21:24:47.336Z,6.03
2022-08-27T21:27:15.625Z,5.27
2022-08-27T21:29:44.399Z,5.00
2022-08-27T21:32:11.337Z,4.40
2022-08-27T21:34:37.847Z,3.43
2022-08-27T21:37:04.805Z,3.27
2022-08-27T21:39:33.255Z,3.43
2022-08-27T21:42:03.139Z,2.70
2022-08-27T21:44:30.355Z,3.20
2022-08-27T21:46:57.983Z,3.73
2022-08-27T21:49:24.615Z,2.80
2022-08-27T21:51:51.055Z,2.60
2022-08-27T21:54:17.633Z,3.07
2022-08-27T21:56:44.942Z,3.10
2022-08-27T21:59:11.524Z,3.00
2022-08-27T22:01:38.219Z,2.87
2022-08-27T22:04:04.781Z,3.13
2022-08-27T22:06:31.318Z,2.80
2022-08-27T22:08:57.938Z,3.00
2022-08-27T22:11:25.581Z,3.13
2022-08-27T22:13:53.032Z,3.17
2022-08-27T22:16:19.572Z,3.10
2022-08-27T22:18:46.107Z,2.93
2022-08-27T22:21:13.202Z,3.00
2022-08-27T22:23:39.850Z,3.07
2022-08-27T22:26:11.296Z,3.00
2022-08-27T22:28:37.714Z,3.57
2022-08-27T22:31:04.197Z,2.63
2022-08-27T22:33:30.697Z,2.60
2022-08-27T22:35:57.113Z,2.70
2022-08-27T22:38:23.638Z,2.63
2022-08-27T22:40:52.049Z,2.83
2022-08-27T22:43:18.475Z,2.80
2022-08-27T22:45:45.010Z,2.70
2022-08-27T22:48:11.695Z,2.60
2022-08-27T22:50:38.480Z,2.60
2022-08-27T22:53:04.939Z,2.60
2022-08-27T22:55:31.577Z,2.97
2022-08-27T22:57:58.389Z,2.67
2022-08-27T23:00:29.664Z,2.50
2022-08-27T23:02:56.437Z,2.80
2022-08-27T23:05:23.211Z,2.43
2022-08-27T23:07:50.323Z,2.80
2022-08-27T23:10:21.371Z,2.58
2022-08-27T23:12:48.206Z,2.28
2022-08-27T23:15:17.889Z,2.45
2022-08-27T23:17:44.512Z,2.50
2022-08-27T23:20:11.956Z,2.30
2022-08-27T23:22:39.364Z,2.22
2022-08-27T23:25:26.174Z,2.42
2022-08-27T23:27:52.529Z,2.30
2022-08-27T23:30:19.458Z,2.40
2022-08-27T23:32:49.497Z,2.38
2022-08-27T23:35:22.483Z,2.40
2022-08-27T23:37:50.087Z,2.75
2022-08-27T23:40:17.665Z,2.85
2022-08-27T23:42:45.284Z,2.72
2022-08-27T23:45:17.173Z,2.58
2022-08-27T23:47:43.953Z,2.72
2022-08-27T23:50:10.909Z,2.60
2022-08-27T23:52:38.024Z,2.78
2022-08-27T23:55:06.067Z,2.58
2022-08-27T23:57:32.950Z,2.70
2022-08-27T23:59:59.318Z,2.63
